createdAt,value
2022-12-01T00:00:07.814Z,11.84
2022-12-01T00:01:11.572Z,11.79
2022-12-01T00:02:13.813Z,11.84
2022-12-01T00:03:17.169Z,11.98
2022-12-01T00:04:20.396Z,12.00
2022-12-01T00:05:22.672Z,12.16
2022-12-01T00:06:25.799Z,12.00
2022-12-01T00:07:28.040Z,12.07
2022-12-01T00:08:32.367Z,12.17
2022-12-01T00:09:53.235Z,12.22
2022-12-01T00:10:55.967Z,12.18
2022-12-01T00:11:58.092Z,12.05
2022-12-01T00:13:03.392Z,11.98
2022-12-01T00:14:07.526Z,11.67
2022-12-01T00:15:11.622Z,11.78
2022-12-01T00:16:16.101Z,11.93
2022-12-01T00:17:19.279Z,11.88
2022-12-01T00:18:21.433Z,11.89
2022-12-01T00:19:26.414Z,11.79
2022-12-01T00:20:29.334Z,11.97
2022-12-01T00:21:32.506Z,11.86
2022-12-01T00:22:34.667Z,11.76
2022-12-01T00:23:37.802Z,11.85
2022-12-01T00:24:39.911Z,11.95
2022-12-01T00:25:43.092Z,12.06
2022-12-01T00:26:45.222Z,11.98
2022-12-01T00:27:49.817Z,12.05
2022-12-01T00:28:52.732Z,12.00
2022-12-01T00:29:57.388Z,11.98
2022-12-01T00:31:00.280Z,12.07
2022-12-01T00:32:03.730Z,12.04
2022-12-01T00:33:05.909Z,11.93
2022-12-01T00:34:14.456Z,11.91
2022-12-01T00:35:17.645Z,11.90
2022-12-01T00:36:21.144Z,11.73
2022-12-01T00:37:23.255Z,11.81
2022-12-01T00:38:26.664Z,11.67
2022-12-01T00:39:30.075Z,11.66
2022-12-01T00:40:32.232Z,11.82
2022-12-01T00:41:35.627Z,11.71
2022-12-01T00:42:38.030Z,11.84
2022-12-01T00:43:41.254Z,11.81
2022-12-01T00:44:43.311Z,11.77
2022-12-01T00:45:48.060Z,11.83
2022-12-01T00:46:50.268Z,11.75
2022-12-01T00:47:53.890Z,11.87
2022-12-01T00:48:56.351Z,11.77
2022-12-01T00:49:59.894Z,11.81
2022-12-01T00:51:02.096Z,11.87
2022-12-01T00:52:05.430Z,11.78
2022-12-01T00:53:07.707Z,11.65
2022-12-01T00:54:10.799Z,11.55
2022-12-01T00:55:12.944Z,11.64
2022-12-01T00:56:16.174Z,11.71
2022-12-01T00:57:18.256Z,11.81
2022-12-01T00:58:21.696Z,11.83
2022-12-01T00:59:24.012Z,11.83
2022-12-01T01:00:27.563Z,11.72
2022-12-01T01:01:31.336Z,11.71
2022-12-01T01:02:34.970Z,11.74
2022-12-01T01:03:37.212Z,11.64
2022-12-01T01:04:40.572Z,11.63
2022-12-01T01:05:43.957Z,11.72
2022-12-01T01:06:47.607Z,11.69
2022-12-01T01:07:49.756Z,11.66
2022-12-01T01:08:53.422Z,11.67
2022-12-01T01:09:56.799Z,11.63
2022-12-01T01:11:00.925Z,11.51
2022-12-01T01:12:04.297Z,11.37
2022-12-01T01:13:06.901Z,11.20
2022-12-01T01:14:10.532Z,11.26
2022-12-01T01:15:12.808Z,11.43
2022-12-01T01:16:17.987Z,11.67
2022-12-01T01:17:22.006Z,11.61
2022-12-01T01:18:25.926Z,11.55
2022-12-01T01:19:29.034Z,11.59
2022-12-01T01:20:31.429Z,11.56
2022-12-01T01:21:35.066Z,11.61
2022-12-01T01:22:37.259Z,11.52
2022-12-01T01:23:40.671Z,11.26
2022-12-01T01:24:42.920Z,11.38
2022-12-01T01:25:46.050Z,11.47
2022-12-01T01:26:48.157Z,11.34
2022-12-01T01:27:51.725Z,11.58
2022-12-01T01:28:55.987Z,11.45
2022-12-01T01:29:59.470Z,11.41
2022-12-01T01:31:06.505Z,11.43
2022-12-01T01:32:09.794Z,11.57
2022-12-01T01:33:13.315Z,11.39
2022-12-01T01:34:16.737Z,11.24
2022-12-01T01:35:18.838Z,11.28
2022-12-01T01:36:22.048Z,11.24
2022-12-01T01:37:24.173Z,11.15
2022-12-01T01:38:27.542Z,11.27
2022-12-01T01:39:30.193Z,11.29
2022-12-01T01:40:33.591Z,11.40
2022-12-01T01:41:35.784Z,11.51
2022-12-01T01:42:38.988Z,11.44
2022-12-01T01:43:46.220Z,11.43
2022-12-01T01:44:53.622Z,11.49
2022-12-01T01:45:55.784Z,11.32
2022-12-01T01:46:59.211Z,11.34
2022-12-01T01:48:01.488Z,11.29
2022-12-01T01:49:09.087Z,11.33
2022-12-01T01:50:13.358Z,11.36
2022-12-01T01:51:18.658Z,11.28
2022-12-01T01:52:23.607Z,11.40
2022-12-01T01:53:26.074Z,11.46
2022-12-01T01:54:34.987Z,11.52
2022-12-01T01:55:37.183Z,11.60
2022-12-01T01:56:40.366Z,11.66
2022-12-01T01:57:43.674Z,11.64
2022-12-01T01:58:47.319Z,11.68
2022-12-01T01:59:53.747Z,11.68
2022-12-01T02:00:57.270Z,11.78
2022-12-01T02:02:06.685Z,11.79
2022-12-01T02:03:13.951Z,11.97
2022-12-01T02:04:19.080Z,11.88
2022-12-01T02:05:25.227Z,11.78
2022-12-01T02:06:27.324Z,11.64
2022-12-01T02:07:30.530Z,11.73
2022-12-01T02:08:36.111Z,11.62
2022-12-01T02:09:39.258Z,11.66
2022-12-01T02:10:59.950Z,11.74
2022-12-01T02:12:13.894Z,11.70
2022-12-01T02:13:25.484Z,11.91
2022-12-01T02:14:42.707Z,11.88
2022-12-01T02:15:53.295Z,11.76
2022-12-01T02:17:01.955Z,11.74
2022-12-01T02:18:20.829Z,11.74
2022-12-01T02:19:45.263Z,11.62
2022-12-01T02:21:09.157Z,11.72
2022-12-01T02:22:24.995Z,11.85
2022-12-01T02:23:50.254Z,11.73
2022-12-01T02:25:19.624Z,11.77
2022-12-01T02:26:39.612Z,11.58
2022-12-01T02:28:10.026Z,11.55
2022-12-01T02:30:00.513Z,11.42
2022-12-01T02:31:12.679Z,11.66
2022-12-01T02:32:21.936Z,11.77
2022-12-01T02:33:30.633Z,11.54
2022-12-01T02:34:43.576Z,11.56
2022-12-01T02:35:51.701Z,11.65
2022-12-01T02:36:58.688Z,11.38
2022-12-01T02:38:11.344Z,11.38
2022-12-01T02:39:19.213Z,11.46
2022-12-01T02:40:27.844Z,11.46
2022-12-01T02:41:35.572Z,11.67
2022-12-01T02:42:49.905Z,11.81
2022-12-01T02:43:58.540Z,11.72
2022-12-01T02:45:03.845Z,11.70
2022-12-01T02:46:13.912Z,11.66
2022-12-01T02:47:19.073Z,11.74
2022-12-01T02:48:27.167Z,11.69
2022-12-01T02:49:34.888Z,11.47
2022-12-01T02:50:40.780Z,11.61
2022-12-01T02:51:46.206Z,11.54
2022-12-01T02:52:48.670Z,11.34
2022-12-01T02:53:52.595Z,11.35
2022-12-01T02:54:56.528Z,11.39
2022-12-01T02:56:01.041Z,11.33
2022-12-01T02:57:03.299Z,11.21
2022-12-01T02:58:15.410Z,11.06
2022-12-01T02:59:18.532Z,11.23
2022-12-01T03:00:20.796Z,11.23
2022-12-01T03:01:52.636Z,11.12
2022-12-01T03:03:14.120Z,11.24
2022-12-01T03:04:37.001Z,11.40
2022-12-01T03:05:45.166Z,11.21
2022-12-01T03:06:58.785Z,11.42
2022-12-01T03:08:13.752Z,11.42
2022-12-01T03:09:27.784Z,11.38
2022-12-01T03:10:38.352Z,11.56
2022-12-01T03:11:48.038Z,11.57
2022-12-01T03:13:02.148Z,11.28
2022-12-01T03:14:18.307Z,11.45
2022-12-01T03:15:31.156Z,11.58
2022-12-01T03:16:44.247Z,11.58
2022-12-01T03:17:54.174Z,11.67
2022-12-01T03:19:00.867Z,11.60
2022-12-01T03:20:11.825Z,11.40
2022-12-01T03:21:22.838Z,11.64
2022-12-01T03:22:29.035Z,11.75
2022-12-01T03:23:36.809Z,11.51
2022-12-01T03:24:41.293Z,11.66
2022-12-01T03:25:49.741Z,11.98
2022-12-01T03:26:57.063Z,12.05
2022-12-01T03:29:30.772Z,12.08
2022-12-01T03:30:35.727Z,12.06
2022-12-01T03:31:44.555Z,11.87
2022-12-01T03:32:53.164Z,11.87
2022-12-01T03:34:02.076Z,11.73
2022-12-01T03:35:09.118Z,11.76
2022-12-01T03:36:17.494Z,11.60
2022-12-01T03:37:24.897Z,11.63
2022-12-01T03:38:31.937Z,11.76
2022-12-01T03:39:36.188Z,11.91
2022-12-01T03:40:41.457Z,11.95
2022-12-01T03:41:56.891Z,11.97
2022-12-01T03:43:04.269Z,12.14
2022-12-01T03:44:12.567Z,12.11
2022-12-01T03:45:19.758Z,12.15
2022-12-01T03:46:30.814Z,12.21
2022-12-01T03:47:35.869Z,12.00
2022-12-01T03:48:41.915Z,12.05
2022-12-01T03:49:45.296Z,12.12
2022-12-01T03:50:58.504Z,12.14
2022-12-01T03:52:11.759Z,12.02
2022-12-01T03:53:21.887Z,11.72
2022-12-01T03:54:38.340Z,11.86
2022-12-01T03:55:44.090Z,11.94
2022-12-01T03:56:53.516Z,11.99
2022-12-01T03:58:03.172Z,11.87
2022-12-01T03:59:09.288Z,11.94
2022-12-01T04:00:14.902Z,11.95
2022-12-01T04:01:17.207Z,11.92
2022-12-01T04:02:20.636Z,11.71
2022-12-01T04:03:25.503Z,11.83
2022-12-01T04:04:30.214Z,11.74
2022-12-01T04:05:34.782Z,11.74
2022-12-01T04:06:38.008Z,11.63
2022-12-01T04:07:40.702Z,11.81
2022-12-01T04:08:43.947Z,11.74
2022-12-01T04:09:46.256Z,11.73
2022-12-01T04:10:49.603Z,11.78
2022-12-01T04:12:10.635Z,11.75
2022-12-01T04:13:22.337Z,11.74
2022-12-01T04:14:26.372Z,11.65
2022-12-01T04:15:28.865Z,11.64
2022-12-01T04:16:32.309Z,11.69
2022-12-01T04:17:35.072Z,11.76
2022-12-01T04:18:38.262Z,11.97
2022-12-01T04:19:41.960Z,11.70
2022-12-01T04:20:47.013Z,11.62
2022-12-01T04:21:49.137Z,11.63
2022-12-01T04:22:52.317Z,11.64
2022-12-01T04:24:00.389Z,11.75
2022-12-01T04:25:04.031Z,11.71
2022-12-01T04:26:08.111Z,11.65
2022-12-01T04:27:14.627Z,11.67
2022-12-01T04:28:16.857Z,11.74
2022-12-01T04:29:20.321Z,11.78
2022-12-01T04:30:22.507Z,11.77
2022-12-01T04:31:25.813Z,11.72
2022-12-01T04:32:28.094Z,11.73
2022-12-01T04:33:31.329Z,11.62
2022-12-01T04:34:33.604Z,11.67
2022-12-01T04:35:38.675Z,11.52
2022-12-01T04:36:40.802Z,11.57
2022-12-01T04:37:43.982Z,11.54
2022-12-01T04:38:46.096Z,11.59
2022-12-01T04:39:50.713Z,11.69
2022-12-01T04:40:53.210Z,11.55
2022-12-01T04:41:56.793Z,11.61
2022-12-01T04:42:58.859Z,11.58
2022-12-01T04:44:02.654Z,11.71
2022-12-01T04:45:05.205Z,11.62
2022-12-01T04:46:09.446Z,11.65
2022-12-01T04:47:12.780Z,11.72
2022-12-01T04:48:14.939Z,11.71
2022-12-01T04:49:18.104Z,11.73
2022-12-01T04:50:20.255Z,11.60
2022-12-01T04:51:25.076Z,11.70
2022-12-01T04:52:32.032Z,11.73
2022-12-01T04:53:38.485Z,11.75
2022-12-01T04:54:41.168Z,11.78
2022-12-01T04:55:44.433Z,11.59
2022-12-01T04:56:46.622Z,11.66
2022-12-01T04:57:50.026Z,11.74
2022-12-01T04:58:52.253Z,11.79
2022-12-01T04:59:55.526Z,11.78
2022-12-01T05:01:02.248Z,11.79
2022-12-01T05:02:05.828Z,11.91
2022-12-01T05:03:13.523Z,11.72
2022-12-01T05:04:18.235Z,11.86
2022-12-01T05:05:20.506Z,11.83
2022-12-01T05:06:26.715Z,11.90
2022-12-01T05:07:28.947Z,11.97
2022-12-01T05:08:32.636Z,11.90
2022-12-01T05:09:35.918Z,11.89
2022-12-01T05:10:38.658Z,11.96
2022-12-01T05:11:41.756Z,11.79
2022-12-01T05:12:43.955Z,11.85
2022-12-01T05:13:49.888Z,12.05
2022-12-01T05:14:52.164Z,12.08
2022-12-01T05:15:55.437Z,12.18
2022-12-01T05:16:58.348Z,12.34
2022-12-01T05:18:01.769Z,12.17
2022-12-01T05:19:35.796Z,12.18
2022-12-01T05:20:56.208Z,12.14
2022-12-01T05:22:00.759Z,12.02
2022-12-01T05:23:05.761Z,12.04
2022-12-01T05:24:10.885Z,12.02
2022-12-01T05:25:13.020Z,12.12
2022-12-01T05:26:16.341Z,12.28
2022-12-01T05:27:18.609Z,12.26
2022-12-01T05:28:22.977Z,12.31
2022-12-01T05:29:26.123Z,12.30
2022-12-01T05:30:28.956Z,12.33
2022-12-01T05:31:32.877Z,12.38
2022-12-01T05:32:35.008Z,12.39
2022-12-01T05:33:38.198Z,12.50
2022-12-01T05:34:40.394Z,12.49
2022-12-01T05:35:44.071Z,12.60
2022-12-01T05:36:46.427Z,12.56
2022-12-01T05:37:50.990Z,12.27
2022-12-01T05:38:54.682Z,12.40
2022-12-01T05:39:56.732Z,12.43
2022-12-01T05:40:59.856Z,12.45
2022-12-01T05:42:01.967Z,12.35
2022-12-01T05:43:05.914Z,12.49
2022-12-01T05:44:08.247Z,12.64
2022-12-01T05:45:12.568Z,12.59
2022-12-01T05:46:15.113Z,12.70
2022-12-01T05:47:18.339Z,12.43
2022-12-01T05:48:20.689Z,12.42
2022-12-01T05:49:24.135Z,12.32
2022-12-01T05:50:27.836Z,12.44
2022-12-01T05:51:31.015Z,12.38
2022-12-01T05:52:34.539Z,12.42
2022-12-01T05:53:39.923Z,12.37
2022-12-01T05:54:42.337Z,12.31
2022-12-01T05:55:45.927Z,12.31
2022-12-01T05:56:48.069Z,12.46
2022-12-01T05:57:51.148Z,12.53
2022-12-01T05:58:54.397Z,12.35
2022-12-01T05:59:57.077Z,12.43
2022-12-01T06:01:00.196Z,12.37
2022-12-01T06:02:02.668Z,12.33
2022-12-01T06:03:06.852Z,12.17
2022-12-01T06:04:09.031Z,12.31
2022-12-01T06:05:12.367Z,12.35
2022-12-01T06:06:15.730Z,12.06
2022-12-01T06:07:17.847Z,12.00
2022-12-01T06:08:21.144Z,12.02
2022-12-01T06:09:25.260Z,11.92
2022-12-01T06:10:28.423Z,11.83
2022-12-01T06:11:30.614Z,11.92
2022-12-01T06:12:33.837Z,11.84
2022-12-01T06:13:37.124Z,12.00
2022-12-01T06:14:39.325Z,11.97
2022-12-01T06:15:42.945Z,11.79
2022-12-01T06:16:45.144Z,11.94
2022-12-01T06:17:48.621Z,11.99
2022-12-01T06:18:50.775Z,11.99
2022-12-01T06:19:54.556Z,12.10
2022-12-01T06:20:57.087Z,12.11
2022-12-01T06:22:00.306Z,12.23
2022-12-01T06:23:03.575Z,11.87
2022-12-01T06:24:06.414Z,11.86
2022-12-01T06:25:11.895Z,11.75
2022-12-01T06:26:14.165Z,11.78
2022-12-01T06:27:17.401Z,11.65
2022-12-01T06:28:19.868Z,11.65
2022-12-01T06:29:22.989Z,11.47
2022-12-01T06:30:25.820Z,11.70
2022-12-01T06:31:29.370Z,11.55
2022-12-01T06:32:31.994Z,11.55
2022-12-01T06:33:35.394Z,11.45
2022-12-01T06:34:37.614Z,11.58
2022-12-01T06:35:40.897Z,11.51
2022-12-01T06:36:42.980Z,11.40
2022-12-01T06:37:46.308Z,11.41
2022-12-01T06:38:48.395Z,11.35
2022-12-01T06:39:51.926Z,11.29
2022-12-01T06:40:56.607Z,11.32
2022-12-01T06:41:58.950Z,11.31
2022-12-01T06:43:03.155Z,11.33
2022-12-01T06:44:06.193Z,11.39
2022-12-01T06:45:11.151Z,11.31
2022-12-01T06:46:13.394Z,11.35
2022-12-01T06:47:17.000Z,11.28
2022-12-01T06:48:19.444Z,11.26
2022-12-01T06:49:23.226Z,11.17
2022-12-01T06:50:25.676Z,11.28
2022-12-01T06:51:30.828Z,11.23
2022-12-01T06:52:32.972Z,11.27
2022-12-01T06:53:36.795Z,11.31
2022-12-01T06:54:40.265Z,11.35
2022-12-01T06:55:42.656Z,11.31
2022-12-01T06:56:47.563Z,11.46
2022-12-01T06:57:49.916Z,11.52
2022-12-01T06:58:54.205Z,11.38
2022-12-01T06:59:56.963Z,11.46
2022-12-01T07:01:00.636Z,11.50
2022-12-01T07:02:04.224Z,11.43
2022-12-01T07:03:06.675Z,11.41
2022-12-01T07:04:09.969Z,11.46
2022-12-01T07:05:12.248Z,11.46
2022-12-01T07:06:16.635Z,11.51
2022-12-01T07:07:18.891Z,11.41
2022-12-01T07:08:22.175Z,11.46
2022-12-01T07:09:24.371Z,11.48
2022-12-01T07:10:28.507Z,11.50
2022-12-01T07:11:32.363Z,11.58
2022-12-01T07:12:37.375Z,11.63
2022-12-01T07:13:40.876Z,11.59
2022-12-01T07:14:44.068Z,11.77
2022-12-01T07:15:46.594Z,11.71
2022-12-01T07:16:50.049Z,11.71
2022-12-01T07:17:53.605Z,11.63
2022-12-01T07:18:56.075Z,11.66
2022-12-01T07:19:59.316Z,11.65
2022-12-01T07:21:02.391Z,11.79
2022-12-01T07:22:05.578Z,11.77
2022-12-01T07:23:07.756Z,11.76
2022-12-01T07:24:12.666Z,11.68
2022-12-01T07:25:14.992Z,11.60
2022-12-01T07:26:19.783Z,11.61
2022-12-01T07:27:21.892Z,11.54
2022-12-01T07:28:26.637Z,11.63
2022-12-01T07:29:29.921Z,11.61
2022-12-01T07:30:32.088Z,11.61
2022-12-01T07:31:35.416Z,11.71
2022-12-01T07:32:38.596Z,11.70
2022-12-01T07:33:40.875Z,11.67
2022-12-01T07:34:43.963Z,11.75
2022-12-01T07:35:46.158Z,11.78
2022-12-01T07:36:49.294Z,11.89
2022-12-01T07:37:55.390Z,11.87
2022-12-01T07:38:58.628Z,11.89
2022-12-01T07:40:02.431Z,12.01
2022-12-01T07:41:06.013Z,11.94
2022-12-01T07:42:09.201Z,11.93
2022-12-01T07:43:11.305Z,11.96
2022-12-01T07:44:16.021Z,11.88
2022-12-01T07:45:19.245Z,11.95
2022-12-01T07:46:24.629Z,11.93
2022-12-01T07:47:28.095Z,11.91
2022-12-01T07:48:30.600Z,11.96
2022-12-01T07:49:34.384Z,12.10
2022-12-01T07:50:36.796Z,12.08
2022-12-01T07:51:39.996Z,11.96
2022-12-01T07:52:42.192Z,11.90
2022-12-01T07:53:46.073Z,11.94
2022-12-01T07:54:48.241Z,12.02
2022-12-01T07:55:51.654Z,12.15
2022-12-01T07:56:54.757Z,12.15
2022-12-01T07:57:59.791Z,12.11
2022-12-01T07:59:03.078Z,12.59
2022-12-01T08:00:09.388Z,12.87
2022-12-01T08:01:15.088Z,13.06
2022-12-01T08:02:18.560Z,13.25
2022-12-01T08:03:21.304Z,13.53
2022-12-01T08:04:24.736Z,13.75
2022-12-01T08:05:26.923Z,13.83
2022-12-01T08:06:30.113Z,14.00
2022-12-01T08:07:33.415Z,13.99
2022-12-01T08:08:37.163Z,13.93
2022-12-01T08:09:40.430Z,14.09
2022-12-01T08:10:42.513Z,14.23
2022-12-01T08:11:45.660Z,14.35
2022-12-01T08:12:49.197Z,14.41
2022-12-01T08:13:51.905Z,14.38
2022-12-01T08:14:55.392Z,14.27
2022-12-01T08:15:59.423Z,14.13
2022-12-01T08:17:02.722Z,14.29
2022-12-01T08:18:06.094Z,14.35
2022-12-01T08:19:11.732Z,14.22
2022-12-01T08:20:14.220Z,14.39
2022-12-01T08:21:19.184Z,14.56
2022-12-01T08:22:21.556Z,14.69
2022-12-01T08:23:25.744Z,14.52
2022-12-01T08:24:28.925Z,14.47
2022-12-01T08:25:31.065Z,14.41
2022-12-01T08:26:34.469Z,14.48
2022-12-01T08:27:36.795Z,14.51
2022-12-01T08:28:41.014Z,14.63
2022-12-01T08:29:44.150Z,14.65
2022-12-01T08:30:46.595Z,14.43
2022-12-01T08:31:51.615Z,14.41
2022-12-01T08:32:54.720Z,14.55
2022-12-01T08:33:58.727Z,14.59
2022-12-01T08:35:01.084Z,14.65
2022-12-01T08:36:04.581Z,14.82
2022-12-01T08:37:06.735Z,14.63
2022-12-01T08:38:11.442Z,14.61
2022-12-01T08:39:15.223Z,14.60
2022-12-01T08:40:17.426Z,14.72
2022-12-01T08:41:21.071Z,14.82
2022-12-01T08:42:23.355Z,14.72
2022-12-01T08:43:55.855Z,14.57
2022-12-01T08:44:50.215Z,14.55
2022-12-01T08:45:52.706Z,14.54
2022-12-01T08:46:57.386Z,14.25
2022-12-01T08:48:00.134Z,14.44
2022-12-01T08:49:03.871Z,14.47
2022-12-01T08:50:07.204Z,14.47
2022-12-01T08:51:12.937Z,14.36
2022-12-01T08:52:16.149Z,14.58
2022-12-01T08:53:18.342Z,14.59
2022-12-01T08:54:22.109Z,14.74
2022-12-01T08:55:24.411Z,14.57
2022-12-01T08:56:29.594Z,14.60
2022-12-01T08:57:32.138Z,14.33
2022-12-01T08:58:36.014Z,14.27
2022-12-01T08:59:39.136Z,14.03
2022-12-01T09:00:42.029Z,14.03
2022-12-01T09:01:53.385Z,14.19
2022-12-01T09:02:57.114Z,14.21
2022-12-01T09:04:08.772Z,14.10
2022-12-01T09:05:11.485Z,14.11
2022-12-01T09:06:17.092Z,14.17
2022-12-01T09:07:26.024Z,14.41
2022-12-01T09:08:31.799Z,14.51
2022-12-01T09:09:37.207Z,14.57
2022-12-01T09:10:39.558Z,14.27
2022-12-01T09:11:44.060Z,14.12
2022-12-01T09:12:47.236Z,14.44
2022-12-01T09:13:54.434Z,14.08
2022-12-01T09:14:58.268Z,14.13
2022-12-01T09:16:03.807Z,14.22
2022-12-01T09:17:07.549Z,14.16
2022-12-01T09:18:11.267Z,14.12
2022-12-01T09:19:20.600Z,14.30
2022-12-01T09:20:27.365Z,14.48
2022-12-01T09:21:32.291Z,14.45
2022-12-01T09:22:35.747Z,14.48
2022-12-01T09:23:37.908Z,14.49
2022-12-01T09:24:41.001Z,14.63
2022-12-01T09:25:43.193Z,14.74
2022-12-01T09:26:46.632Z,14.52
2022-12-01T09:27:49.802Z,14.66
2022-12-01T09:28:55.696Z,14.59
2022-12-01T09:29:59.017Z,14.47
2022-12-01T09:31:05.252Z,14.42
2022-12-01T09:32:08.407Z,14.20
2022-12-01T09:33:12.648Z,14.35
2022-12-01T09:34:17.539Z,14.62
2022-12-01T09:35:23.362Z,14.38
2022-12-01T09:36:27.997Z,14.64
2022-12-01T09:37:31.219Z,14.83
2022-12-01T09:38:35.017Z,14.80
2022-12-01T09:39:38.598Z,14.83
2022-12-01T09:40:43.733Z,14.54
2022-12-01T09:41:51.187Z,14.42
2022-12-01T09:42:54.692Z,14.54
2022-12-01T09:44:06.319Z,14.43
2022-12-01T09:45:22.592Z,14.34
2022-12-01T09:46:31.250Z,14.43
2022-12-01T09:47:37.068Z,14.40
2022-12-01T09:48:44.249Z,14.37
2022-12-01T09:49:58.684Z,13.90
2022-12-01T09:51:01.306Z,14.17
2022-12-01T09:52:04.596Z,14.22
2022-12-01T09:53:10.261Z,14.07
2022-12-01T09:54:14.813Z,14.00
2022-12-01T09:55:20.984Z,14.07
2022-12-01T09:56:25.992Z,14.04
2022-12-01T09:57:33.816Z,14.14
2022-12-01T09:58:37.826Z,13.99
2022-12-01T09:59:43.584Z,14.08
2022-12-01T10:00:49.307Z,14.20
2022-12-01T10:01:55.237Z,14.22
2022-12-01T10:03:05.992Z,14.20
2022-12-01T10:04:16.011Z,13.96
2022-12-01T10:05:22.248Z,13.91
2022-12-01T10:06:33.515Z,14.26
2022-12-01T10:07:41.139Z,14.72
2022-12-01T10:08:51.075Z,15.08
2022-12-01T10:09:57.355Z,15.36
2022-12-01T10:11:05.986Z,15.13
2022-12-01T10:12:19.895Z,14.84
2022-12-01T10:13:26.261Z,14.83
2022-12-01T10:14:34.508Z,14.53
2022-12-01T10:15:44.343Z,14.93
2022-12-01T10:16:55.104Z,15.17
2022-12-01T10:18:18.778Z,14.94
2022-12-01T10:19:33.056Z,15.00
2022-12-01T10:20:46.688Z,14.98
2022-12-01T10:22:08.488Z,14.92
2022-12-01T10:23:31.961Z,15.03
2022-12-01T10:24:47.882Z,14.98
2022-12-01T10:25:58.081Z,14.90
2022-12-01T10:27:13.737Z,14.66
2022-12-01T10:28:37.120Z,14.72
2022-12-01T10:29:48.304Z,14.56
2022-12-01T10:30:53.782Z,14.62
2022-12-01T10:31:58.324Z,14.63
2022-12-01T10:33:06.103Z,14.67
2022-12-01T10:34:17.139Z,14.52
2022-12-01T10:35:23.803Z,14.49
2022-12-01T10:36:27.145Z,14.37
2022-12-01T10:37:32.156Z,14.25
2022-12-01T10:38:36.809Z,14.05
2022-12-01T10:39:43.248Z,13.98
2022-12-01T10:40:46.379Z,14.08
2022-12-01T10:41:50.974Z,14.09
2022-12-01T10:42:54.352Z,14.10
2022-12-01T10:44:00.948Z,14.02
2022-12-01T10:45:08.827Z,14.07
2022-12-01T10:46:23.743Z,13.69
2022-12-01T10:47:28.267Z,13.56
2022-12-01T10:48:30.796Z,13.59
2022-12-01T10:49:38.711Z,13.63
2022-12-01T10:50:43.609Z,13.62
2022-12-01T10:51:53.136Z,13.46
2022-12-01T10:52:56.388Z,13.56
2022-12-01T10:54:01.115Z,13.56
2022-12-01T10:55:07.697Z,13.71
2022-12-01T10:56:15.195Z,13.70
2022-12-01T10:57:18.723Z,13.59
2022-12-01T10:58:20.973Z,13.79
2022-12-01T10:59:29.784Z,13.77
2022-12-01T11:00:59.731Z,13.89
2022-12-01T11:02:02.273Z,13.97
2022-12-01T11:03:06.606Z,14.11
2022-12-01T11:04:29.259Z,14.59
2022-12-01T11:05:38.967Z,14.85
2022-12-01T11:06:49.770Z,15.25
2022-12-01T11:07:52.862Z,15.72
2022-12-01T11:09:00.448Z,16.27
2022-12-01T11:10:17.341Z,16.47
2022-12-01T11:11:30.354Z,16.17
2022-12-01T11:12:35.374Z,15.80
2022-12-01T11:13:38.730Z,15.65
2022-12-01T11:14:46.070Z,15.60
2022-12-01T11:15:53.204Z,15.60
2022-12-01T11:16:56.606Z,15.38
2022-12-01T11:18:01.770Z,15.20
2022-12-01T11:19:27.583Z,15.22
2022-12-01T11:20:35.483Z,15.22
2022-12-01T11:21:47.998Z,15.01
2022-12-01T11:22:51.208Z,15.04
2022-12-01T11:23:55.895Z,15.18
2022-12-01T11:25:01.794Z,15.38
2022-12-01T11:26:14.147Z,15.34
2022-12-01T11:27:20.764Z,15.25
2022-12-01T11:28:24.220Z,15.44
2022-12-01T11:29:35.572Z,15.37
2022-12-01T11:30:38.967Z,15.64
2022-12-01T11:31:45.174Z,15.48
2022-12-01T11:32:54.607Z,15.60
2022-12-01T11:33:57.032Z,15.55
2022-12-01T11:35:03.903Z,15.56
2022-12-01T11:36:14.619Z,15.28
2022-12-01T11:37:23.032Z,15.24
2022-12-01T11:38:34.609Z,15.21
2022-12-01T11:39:40.713Z,15.30
2022-12-01T11:40:48.130Z,15.10
2022-12-01T11:41:57.084Z,15.04
2022-12-01T11:43:02.361Z,14.88
2022-12-01T11:44:22.449Z,14.56
2022-12-01T11:45:33.881Z,14.51
2022-12-01T11:46:50.091Z,14.55
2022-12-01T11:48:05.736Z,14.44
2022-12-01T11:49:18.533Z,14.51
2022-12-01T11:50:26.137Z,14.70
2022-12-01T11:51:32.032Z,14.60
2022-12-01T11:52:47.370Z,14.70
2022-12-01T11:53:51.163Z,14.75
2022-12-01T11:55:09.537Z,14.53
2022-12-01T11:56:23.404Z,14.41
2022-12-01T11:57:35.257Z,14.62
2022-12-01T11:58:38.993Z,14.47
2022-12-01T11:59:41.241Z,14.46
2022-12-01T12:00:49.142Z,14.61
2022-12-01T12:02:08.031Z,14.85
2022-12-01T12:03:22.344Z,14.85
2022-12-01T12:04:38.572Z,15.03
2022-12-01T12:05:57.619Z,15.17
2022-12-01T12:07:17.675Z,15.08
2022-12-01T12:08:36.971Z,15.27
2022-12-01T12:09:55.341Z,15.02
2022-12-01T12:11:08.810Z,15.09
2022-12-01T12:12:26.959Z,15.25
2022-12-01T12:13:46.497Z,15.22
2022-12-01T12:15:01.047Z,15.46
2022-12-01T12:16:16.099Z,15.85
2022-12-01T12:17:48.901Z,16.15
2022-12-01T12:19:06.111Z,16.36
2022-12-01T12:20:38.704Z,16.68
2022-12-01T12:21:49.972Z,16.67
2022-12-01T12:23:08.450Z,16.63
2022-12-01T12:24:37.332Z,16.84
2022-12-01T12:25:55.493Z,16.49
2022-12-01T12:27:07.386Z,16.60
2022-12-01T12:28:28.547Z,16.86
2022-12-01T12:29:48.554Z,16.80
2022-12-01T12:30:59.056Z,16.93
2022-12-01T12:32:19.510Z,16.98
2022-12-01T12:33:51.173Z,16.89
2022-12-01T12:35:04.558Z,16.84
2022-12-01T12:36:17.588Z,16.84
2022-12-01T12:37:27.898Z,16.80
2022-12-01T12:38:45.724Z,16.86
2022-12-01T12:40:39.422Z,17.26
2022-12-01T12:41:47.242Z,17.39
2022-12-01T12:43:03.935Z,17.44
2022-12-01T12:44:30.018Z,17.08
2022-12-01T12:45:50.795Z,16.92
2022-12-01T12:47:05.150Z,16.49
2022-12-01T12:48:21.198Z,16.69
2022-12-01T12:49:34.120Z,16.63
2022-12-01T12:50:44.955Z,16.32
2022-12-01T12:51:53.002Z,16.52
2022-12-01T12:52:59.651Z,16.10
2022-12-01T12:54:16.625Z,15.82
2022-12-01T12:55:27.932Z,15.68
2022-12-01T12:56:33.753Z,16.07
2022-12-01T12:57:41.065Z,15.94
2022-12-01T12:58:56.527Z,16.12
2022-12-01T13:00:03.563Z,16.38
2022-12-01T13:01:17.141Z,16.54
2022-12-01T13:02:27.158Z,16.79
2022-12-01T13:03:39.909Z,16.76
2022-12-01T13:04:52.935Z,16.57
2022-12-01T13:06:02.790Z,16.69
2022-12-01T13:07:10.347Z,16.81
2022-12-01T13:08:19.155Z,16.44
2022-12-01T13:09:29.157Z,16.57
2022-12-01T13:10:42.156Z,16.75
2022-12-01T13:11:50.919Z,16.86
2022-12-01T13:12:58.265Z,16.72
2022-12-01T13:14:07.315Z,16.33
2022-12-01T13:15:17.183Z,16.39
2022-12-01T13:16:29.356Z,16.41
2022-12-01T13:17:37.842Z,16.52
2022-12-01T13:18:45.568Z,16.45
2022-12-01T13:19:48.272Z,16.70
2022-12-01T13:20:53.693Z,16.85
2022-12-01T13:21:57.997Z,17.03
2022-12-01T13:23:03.904Z,17.14
2022-12-01T13:24:09.292Z,16.85
2022-12-01T13:25:14.832Z,16.83
2022-12-01T13:26:20.569Z,16.76
2022-12-01T13:27:27.042Z,16.94
2022-12-01T13:28:36.571Z,16.68
2022-12-01T13:29:45.769Z,16.83
2022-12-01T13:31:07.522Z,16.67
2022-12-01T13:32:29.040Z,16.43
2022-12-01T13:33:33.624Z,16.70
2022-12-01T13:34:40.516Z,16.83
2022-12-01T13:35:43.724Z,16.99
2022-12-01T13:36:50.225Z,17.01
2022-12-01T13:37:54.876Z,17.01
2022-12-01T13:38:59.813Z,17.04
2022-12-01T13:40:13.576Z,17.29
2022-12-01T13:41:27.728Z,17.06
2022-12-01T13:42:34.345Z,17.37
2022-12-01T13:43:38.075Z,17.32
2022-12-01T13:44:44.117Z,16.98
2022-12-01T13:45:48.420Z,16.98
2022-12-01T13:46:54.384Z,16.90
2022-12-01T13:48:01.814Z,16.84
2022-12-01T13:49:06.174Z,16.75
2022-12-01T13:50:55.880Z,16.90
2022-12-01T13:52:29.282Z,16.82
2022-12-01T13:53:36.758Z,16.63
2022-12-01T13:54:39.901Z,16.61
2022-12-01T13:56:01.361Z,16.87
2022-12-01T13:57:12.128Z,16.66
2022-12-01T13:58:41.257Z,16.48
2022-12-01T14:00:04.252Z,16.63
2022-12-01T14:01:40.897Z,16.33
2022-12-01T14:02:44.712Z,16.28
2022-12-01T14:03:53.527Z,16.00
2022-12-01T14:04:56.872Z,16.17
2022-12-01T14:06:09.224Z,16.01
2022-12-01T14:07:34.785Z,16.33
2022-12-01T14:08:46.176Z,16.63
2022-12-01T14:09:52.421Z,16.32
2022-12-01T14:10:59.357Z,16.38
2022-12-01T14:12:04.032Z,16.33
2022-12-01T14:13:09.206Z,16.23
2022-12-01T14:14:21.218Z,15.96
2022-12-01T14:15:43.916Z,16.17
2022-12-01T14:16:48.895Z,16.27
2022-12-01T14:18:01.899Z,16.11
2022-12-01T14:19:05.150Z,16.11
2022-12-01T14:20:20.452Z,15.85
2022-12-01T14:21:44.839Z,15.89
2022-12-01T14:23:03.231Z,16.03